Time;durP1;ratioP1;P1;durP2;ratioP2;P2;SDS_P1;SDS_P2;PMS_P1;PMS_P2;Temp;Humidity;BMP_temperature;BMP_pressure;BME280_temperature;BME280_humidity;BME280_pressure;Samples;Min_cycle;Max_cycle;Signal;HPM_P1;HPM_P2
2022/03/24 00:01:28;;;;;;;21.60;10.45;;;;;;;2.59;49.30;100953.84;5128589;27;20027;-30
2022/03/24 00:03:53;;;;;;;22.90;10.93;;;;;;;2.47;49.14;100930.47;5128676;27;20080;-32
2022/03/24 00:06:19;;;;;;;23.92;10.45;;;;;;;2.22;50.19;100946.75;5128914;27;20041;-30
2022/03/24 00:08:45;;;;;;;19.77;8.75;;;;;;;2.39;49.58;100937.31;5128214;27;20551;-29
2022/03/24 00:11:11;;;;;;;18.70;9.48;;;;;;;2.36;49.13;100940.22;5127108;28;20096;-28
2022/03/24 00:13:36;;;;;;;17.50;8.75;;;;;;;2.52;48.13;100930.88;5128636;28;20023;-31
2022/03/24 00:16:05;;;;;;;18.95;9.43;;;;;;;2.55;48.41;100930.59;5129964;27;20019;-29
2022/03/24 00:18:32;;;;;;;18.48;7.55;;;;;;;2.27;48.79;100937.59;5131304;27;20035;-30
2022/03/24 00:20:58;;;;;;;16.00;8.38;;;;;;;2.41;48.32;100945.88;5132568;27;20035;-29
2022/03/24 00:23:23;;;;;;;18.88;8.25;;;;;;;2.06;49.00;100908.88;5131129;27;20089;-29
2022/03/24 00:25:50;;;;;;;22.77;9.18;;;;;;;2.30;48.85;100924.16;5132880;27;20031;-29
2022/03/24 00:28:16;;;;;;;17.90;7.50;;;;;;;2.56;48.17;100921.72;5132629;27;20454;-33
2022/03/24 00:30:41;;;;;;;19.63;7.90;;;;;;;2.68;47.71;100920.56;5131128;27;20062;-33
2022/03/24 00:33:07;;;;;;;21.65;7.43;;;;;;;2.47;47.85;100925.22;5144452;27;20046;-32
2022/03/24 00:35:32;;;;;;;19.63;7.40;;;;;;;2.38;48.37;100917.22;5153244;27;20738;-32
2022/03/24 00:37:58;;;;;;;12.00;5.72;;;;;;;2.51;47.95;100929.22;5153041;27;20733;-31
2022/03/24 00:40:24;;;;;;;15.23;6.82;;;;;;;2.47;47.30;100917.31;5153412;27;20475;-31
2022/03/24 00:42:50;;;;;;;15.57;7.45;;;;;;;2.25;47.58;100887.75;5152993;27;20029;-32
2022/03/24 00:45:18;;;;;;;14.10;5.82;;;;;;;2.50;47.16;100911.78;5134363;27;20031;-28
2022/03/24 00:47:45;;;;;;;13.20;5.20;;;;;;;2.12;48.29;100910.94;5134181;27;20110;-31
2022/03/24 00:50:11;;;;;;;10.18;5.47;;;;;;;1.97;49.22;100897.41;5134039;27;20034;-33
2022/03/24 00:52:41;;;;;;;12.95;5.22;;;;;;;1.70;49.33;100877.13;5134076;27;20079;-29
2022/03/24 00:55:18;;;;;;;12.27;4.97;;;;;;;1.93;50.05;100902.13;5134119;27;20801;-28
2022/03/24 00:57:49;;;;;;;9.60;5.03;;;;;;;2.01;48.85;100889.06;5153023;27;20066;-30
2022/03/24 01:00:16;;;;;;;10.57;3.92;;;;;;;1.85;49.22;100888.84;5152772;27;20030;-31
2022/03/24 01:02:43;;;;;;;12.13;5.65;;;;;;;2.23;48.78;100887.09;5133766;27;20019;-30
2022/03/24 01:05:09;;;;;;;28.77;10.38;;;;;;;2.07;48.70;100878.97;5134036;27;20561;-35
2022/03/24 01:07:39;;;;;;;26.05;9.20;;;;;;;1.86;49.52;100863.34;5133708;27;20045;-32
2022/03/24 01:10:06;;;;;;;20.50;9.32;;;;;;;1.18;51.30;100856.38;5133873;27;20095;-32
2022/03/24 01:12:31;;;;;;;31.00;16.70;;;;;;;0.99;52.78;100862.47;5133742;27;20131;-29
2022/03/24 01:14:58;;;;;;;18.88;9.52;;;;;;;1.05;52.80;100869.81;5133542;27;20060;-30
2022/03/24 01:17:25;;;;;;;15.80;7.07;;;;;;;1.07;53.51;100860.00;5133400;27;20065;-33
2022/03/24 01:19:51;;;;;;;13.23;5.77;;;;;;;0.89;53.95;100864.25;5152370;27;20491;-29
2022/03/24 01:22:17;;;;;;;15.90;6.65;;;;;;;1.02;54.04;100864.81;5133664;27;20107;-29
2022/03/24 01:24:42;;;;;;;15.88;7.80;;;;;;;1.03;52.98;100845.47;5152124;27;20406;-28
2022/03/24 01:27:10;;;;;;;16.30;7.22;;;;;;;0.90;53.77;100839.63;5152032;27;20022;-30
2022/03/24 01:29:36;;;;;;;12.70;5.78;;;;;;;1.02;55.00;100846.44;5152392;27;20041;-33
2022/03/24 01:32:03;;;;;;;13.30;5.80;;;;;;;0.93;55.56;100842.00;5151573;27;20031;-29
2022/03/24 01:34:29;;;;;;;14.77;5.82;;;;;;;1.07;55.04;100861.78;5133337;27;20127;-30
2022/03/24 01:36:56;;;;;;;14.05;6.25;;;;;;;0.91;55.18;100852.66;5133078;27;20035;-32
2022/03/24 01:39:22;;;;;;;15.90;6.18;;;;;;;1.02;54.67;100846.44;5151837;27;20018;-30
2022/03/24 01:41:48;;;;;;;12.23;5.80;;;;;;;1.10;55.43;100851.81;5133247;27;20039;-29
2022/03/24 01:44:17;;;;;;;13.27;6.50;;;;;;;1.28;54.32;100859.03;5133180;27;20410;-32
2022/03/24 01:47:06;;;;;;;15.95;6.50;;;;;;;0.84;54.71;100843.66;5152223;27;20019;-28
2022/03/24 01:49:37;;;;;;;16.13;7.47;;;;;;;0.67;56.36;100841.69;5133205;27;20037;-29
2022/03/24 01:52:07;;;;;;;14.50;6.88;;;;;;;1.04;55.11;100844.50;5133218;27;20026;-28
2022/03/24 01:54:33;;;;;;;16.23;6.88;;;;;;;0.88;54.35;100820.56;5151717;27;20482;-29
2022/03/24 01:56:59;;;;;;;14.23;6.70;;;;;;;0.68;56.35;100844.19;5132449;27;20037;-29
2022/03/24 01:59:25;;;;;;;13.90;6.60;;;;;;;0.58;57.04;100843.34;5132885;27;20387;-29
2022/03/24 02:01:51;;;;;;;15.30;6.68;;;;;;;0.86;55.48;100839.09;5133022;27;20041;-31
2022/03/24 02:04:19;;;;;;;16.13;6.70;;;;;;;0.77;55.33;100819.72;5151748;27;20034;-29
2022/03/24 02:06:45;;;;;;;13.40;6.35;;;;;;;0.73;55.63;100820.97;5116039;27;20038;-30
2022/03/24 02:09:12;;;;;;;12.40;5.80;;;;;;;0.71;54.87;100807.16;5151341;27;20058;-31
2022/03/24 02:11:38;;;;;;;14.15;6.60;;;;;;;0.60;56.23;100831.72;5132455;27;20502;-34
2022/03/24 02:14:05;;;;;;;10.73;5.85;;;;;;;0.89;54.75;100833.56;5151622;27;20022;-33
2022/03/24 02:16:38;;;;;;;33.63;12.77;;;;;;;0.94;52.92;100814.75;5132659;27;20041;-31
2022/03/24 02:19:21;;;;;;;15.15;7.70;;;;;;;0.32;55.49;100817.56;5132547;27;20031;-31
2022/03/24 02:21:48;;;;;;;16.67;6.95;;;;;;;0.39;55.79;100817.88;5151252;27;20026;-28
2022/03/24 02:24:16;;;;;;;12.20;5.30;;;;;;;0.67;53.95;100811.00;5151557;27;20041;-28
2022/03/24 02:26:44;;;;;;;16.67;6.50;;;;;;;0.59;54.83;100802.97;5132520;27;20114;-33
2022/03/24 02:29:15;;;;;;;34.60;12.43;;;;;;;0.78;54.04;100797.78;5132394;27;20124;-28
2022/03/24 02:31:43;;;;;;;30.85;10.13;;;;;;;0.94;54.26;100827.91;5132249;27;20037;-29
2022/03/24 02:37:02;;;;;;;16.67;6.65;;;;;;;0.57;54.60;100805.78;5150704;27;20029;-30
2022/03/24 02:39:28;;;;;;;13.40;5.18;;;;;;;0.72;53.65;100803.56;5131714;27;20037;-33
2022/03/24 02:41:56;;;;;;;16.85;7.10;;;;;;;0.47;54.99;100799.69;5132001;27;20023;-28
2022/03/24 02:44:23;;;;;;;21.37;6.07;;;;;;;1.01;53.57;100800.13;5132121;27;20027;-29
2022/03/24 02:46:51;;;;;;;12.87;4.73;;;;;;;0.92;54.08;100782.56;5131590;27;20252;-29
2022/03/24 02:49:18;;;;;;;9.93;4.67;;;;;;;0.52;55.02;100789.59;5131900;27;20359;-32
2022/03/24 02:51:44;;;;;;;18.27;5.43;;;;;;;0.29;56.52;100801.28;5131931;27;20274;-29
2022/03/24 02:54:11;;;;;;;11.35;5.70;;;;;;;0.45;55.69;100806.00;5131853;27;20466;-30
2022/03/24 02:56:37;;;;;;;14.85;5.97;;;;;;;0.23;56.86;100797.41;5131620;27;20031;-28
2022/03/24 02:59:07;;;;;;;15.52;6.82;;;;;;;-0.13;57.63;100809.25;5150373;27;20035;-31
2022/03/24 03:01:38;;;;;;;14.05;6.18;;;;;;;-0.15;59.10;100800.69;5150281;27;20027;-32
2022/03/24 03:04:05;;;;;;;12.52;6.53;;;;;;;-0.02;57.66;100801.28;5150653;27;20075;-37
2022/03/24 03:06:33;;;;;;;9.52;4.88;;;;;;;-0.07;57.58;100790.38;5131916;27;20122;-28
2022/03/24 03:08:58;;;;;;;19.83;5.65;;;;;;;-0.21;57.92;100776.66;5150256;27;20035;-31
2022/03/24 03:11:24;;;;;;;9.27;4.78;;;;;;;0.20;56.50;100795.03;5150399;27;20039;-29
2022/03/24 03:13:50;;;;;;;17.55;5.28;;;;;;;0.03;56.78;100796.50;5150223;27;20019;-28
2022/03/24 03:16:15;;;;;;;23.75;13.57;;;;;;;-0.26;58.27;100793.75;5150271;27;20026;-38
2022/03/24 03:18:44;;;;;;;15.80;8.45;;;;;;;-0.03;57.30;100787.34;5131550;27;20414;-33
2022/03/24 03:21:11;;;;;;;11.95;5.63;;;;;;;0.14;57.08;100796.41;5131349;27;20062;-33
2022/03/24 03:23:38;;;;;;;10.77;4.63;;;;;;;0.00;57.00;100786.28;5131455;27;20050;-30
2022/03/24 03:26:07;;;;;;;9.95;5.03;;;;;;;0.16;56.36;100791.00;5131152;27;20474;-31
2022/03/24 03:28:34;;;;;;;10.68;4.53;;;;;;;0.06;56.49;100784.91;5130923;27;20172;-35
2022/03/24 03:30:59;;;;;;;9.10;4.47;;;;;;;0.33;54.86;100798.25;5131179;27;20126;-33
2022/03/24 03:33:25;;;;;;;10.30;4.63;;;;;;;-0.06;56.34;100786.78;5149922;27;20546;-28
2022/03/24 03:35:52;;;;;;;48.88;19.63;;;;;;;-0.45;57.95;100782.22;5150108;27;20034;-28
2022/03/24 03:38:18;;;;;;;16.75;8.57;;;;;;;-0.42;58.16;100795.03;5131059;27;20034;-33
2022/03/24 03:40:44;;;;;;;12.65;6.10;;;;;;;-0.16;57.19;100781.53;5149746;27;20501;-33
2022/03/24 03:43:10;;;;;;;11.90;6.00;;;;;;;-0.19;57.15;100776.53;5130786;27;20026;-29
2022/03/24 03:45:36;;;;;;;13.98;5.38;;;;;;;0.03;56.61;100800.91;5131056;27;20025;-29
2022/03/24 03:48:02;;;;;;;11.27;5.85;;;;;;;-0.14;57.21;100789.25;5131101;27;20026;-29
2022/03/24 03:50:28;;;;;;;8.60;4.38;;;;;;;-0.56;58.52;100769.19;5130061;27;20023;-33
2022/03/24 03:52:54;;;;;;;9.98;4.50;;;;;;;-0.36;57.11;100785.84;5130748;27;20039;-33
2022/03/24 03:55:20;;;;;;;13.30;5.88;;;;;;;-0.36;57.68;100795.50;5149650;27;20023;-29
2022/03/24 03:57:46;;;;;;;15.57;5.97;;;;;;;-0.76;58.75;100783.13;5149189;27;20062;-29
2022/03/24 04:02:57;;;;;;;16.33;6.10;;;;;;;-0.41;57.65;100770.50;5149674;27;20086;-29
2022/03/24 04:05:25;;;;;;;12.60;5.38;;;;;;;-0.29;57.97;100776.47;5149615;27;20048;-33
2022/03/24 04:07:51;;;;;;;10.40;5.57;;;;;;;-0.36;58.94;100785.03;5130226;27;20027;-29
2022/03/24 04:10:17;;;;;;;15.55;5.82;;;;;;;-0.46;59.52;100779.72;5148719;27;20790;-33
2022/03/24 04:12:43;;;;;;;9.48;4.65;;;;;;;-0.40;58.77;100773.97;5149155;27;20050;-32
2022/03/24 04:15:12;;;;;;;10.30;5.47;;;;;;;-0.42;58.56;100766.22;5149171;27;20062;-32
2022/03/24 04:17:38;;;;;;;11.63;4.90;;;;;;;-0.31;58.36;100772.34;5130362;27;20033;-30
2022/03/24 04:20:05;;;;;;;11.43;5.18;;;;;;;-0.63;57.94;100757.56;5149226;27;20138;-30
2022/03/24 04:22:30;;;;;;;11.07;5.53;;;;;;;-0.70;59.74;100770.34;5130304;27;20490;-30
2022/03/24 04:24:56;;;;;;;14.18;4.93;;;;;;;-0.87;59.67;100776.97;5129882;27;20026;-31
2022/03/24 04:27:22;;;;;;;14.32;5.32;;;;;;;-0.57;58.91;100757.06;5148641;27;20183;-31
2022/03/24 04:29:47;;;;;;;10.82;5.30;;;;;;;-0.16;57.82;100770.19;5148842;27;20030;-29
2022/03/24 04:32:13;;;;;;;15.98;5.80;;;;;;;-0.76;59.19;100749.06;5126979;28;20046;-28
2022/03/24 04:34:39;;;;;;;12.32;6.15;;;;;;;-0.93;60.13;100782.72;5127083;28;20027;-28
2022/03/24 04:37:05;;;;;;;22.42;12.10;;;;;;;-0.93;60.52;100782.72;5109637;28;20032;-28
2022/03/24 04:39:31;;;;;;;18.50;9.88;;;;;;;-0.72;60.54;100779.28;5126702;27;20023;-29
2022/03/24 04:41:57;;;;;;;22.63;12.23;;;;;;;-1.15;61.32;100783.66;5128404;28;20054;-31
2022/03/24 04:44:23;;;;;;;26.50;17.80;;;;;;;-0.76;60.54;100783.13;5128218;28;20035;-34
2022/03/24 04:46:52;;;;;;;21.27;13.10;;;;;;;-1.25;61.74;100773.13;5126646;28;20016;-31
2022/03/24 04:49:18;;;;;;;63.80;39.22;;;;;;;-1.20;61.42;100725.63;5126656;28;20054;-29
2022/03/24 04:51:44;;;;;;;83.88;52.03;;;;;;;-0.96;61.73;100779.53;5128117;28;20066;-30
2022/03/24 04:54:10;;;;;;;55.70;33.03;;;;;;;-0.94;61.79;100781.09;5127910;28;20764;-30
2022/03/24 04:56:35;;;;;;;49.75;28.75;;;;;;;-0.66;61.53;100768.28;5128094;27;20035;-28
2022/03/24 04:59:01;;;;;;;45.20;27.17;;;;;;;-1.08;62.14;100753.41;5128245;28;20019;-31
2022/03/24 05:01:26;;;;;;;31.42;20.30;;;;;;;-0.76;62.07;100789.19;5127900;27;20032;-30
2022/03/24 05:03:52;;;;;;;29.65;18.92;;;;;;;-0.69;61.88;100774.63;5132034;27;20027;-28
2022/03/24 05:06:17;;;;;;;52.25;32.20;;;;;;;-0.62;61.81;100780.19;5130336;27;20031;-30
2022/03/24 05:08:43;;;;;;;45.22;28.05;;;;;;;-0.26;60.51;100775.41;5131731;27;20410;-30
2022/03/24 05:11:09;;;;;;;22.98;14.38;;;;;;;-0.61;61.06;100737.31;5131781;27;20394;-28
2022/03/24 05:13:34;;;;;;;19.63;12.88;;;;;;;-0.52;61.65;100778.44;5130337;27;20027;-29
2022/03/24 05:16:00;;;;;;;19.33;10.85;;;;;;;-0.57;61.91;100778.00;5131720;27;20859;-29
2022/03/24 05:18:25;;;;;;;17.50;9.98;;;;;;;-0.49;62.18;100778.19;5131670;27;20465;-33
2022/03/24 05:20:51;;;;;;;12.77;6.72;;;;;;;-0.19;61.64;100779.16;5131436;27;20049;-29
2022/03/24 05:23:16;;;;;;;21.55;12.13;;;;;;;0.04;60.83;100769.31;5129959;27;20029;-30
2022/03/24 05:25:44;;;;;;;32.83;12.70;;;;;;;0.04;60.10;100747.50;5131887;27;20019;-31
2022/03/24 05:28:10;;;;;;;18.63;8.60;;;;;;;0.48;60.40;100771.63;5130116;27;20033;-28
2022/03/24 05:30:36;;;;;;;18.90;12.40;;;;;;;0.44;59.37;100757.13;5130088;27;20027;-28
2022/03/24 05:33:02;;;;;;;28.95;19.13;;;;;;;0.68;58.34;100757.56;5129497;27;20054;-29
2022/03/24 05:35:29;;;;;;;13.88;9.23;;;;;;;0.77;58.89;100775.09;5129870;27;20115;-29
2022/03/24 05:37:55;;;;;;;16.55;11.70;;;;;;;0.74;59.41;100751.75;5129539;27;20023;-29
2022/03/24 05:40:21;;;;;;;31.30;13.45;;;;;;;1.07;57.77;100775.94;5131129;27;20027;-31
2022/03/24 05:42:47;;;;;;;44.15;20.40;;;;;;;1.13;59.45;100778.00;5129592;27;20052;-37
2022/03/24 05:45:13;;;;;;;26.35;13.23;;;;;;;1.29;59.13;100768.69;5131391;27;20023;-30
2022/03/24 05:47:39;;;;;;;37.97;17.58;;;;;;;1.56;59.73;100771.41;5131221;27;20474;-30
2022/03/24 05:50:04;;;;;;;31.85;14.85;;;;;;;1.66;59.04;100781.91;5130973;27;20027;-31
2022/03/24 05:52:30;;;;;;;17.88;9.32;;;;;;;1.86;58.41;100780.03;5129467;27;20050;-28
2022/03/24 05:54:55;;;;;;;13.70;7.93;;;;;;;1.76;58.38;100755.59;5129512;27;20134;-39
2022/03/24 05:57:22;;;;;;;14.05;8.13;;;;;;;2.05;57.03;100781.75;5131130;27;20099;-34
2022/03/24 05:59:48;;;;;;;12.23;8.07;;;;;;;2.05;57.29;100754.63;5129741;27;20027;-28
2022/03/24 06:02:14;;;;;;;12.68;7.45;;;;;;;2.40;57.10;100774.91;5130882;27;20100;-32
2022/03/24 06:04:42;;;;;;;16.55;8.38;;;;;;;2.38;56.82;100787.41;5130898;27;20023;-38
2022/03/24 06:07:11;;;;;;;18.25;8.88;;;;;;;2.70;56.05;100802.72;5128876;27;20505;-30
2022/03/24 06:09:37;;;;;;;22.55;8.23;;;;;;;2.76;56.79;100762.63;5129504;27;20039;-31
2022/03/24 06:12:02;;;;;;;12.65;6.35;;;;;;;3.06;56.47;100775.53;5129101;27;20031;-29
2022/03/24 06:14:28;;;;;;;13.27;7.28;;;;;;;3.26;55.76;100776.19;5129920;27;20023;-31
2022/03/24 06:16:53;;;;;;;16.02;8.10;;;;;;;3.46;53.75;100766.28;5130314;27;20051;-36
2022/03/24 06:19:19;;;;;;;18.40;8.45;;;;;;;3.81;52.75;100776.69;5129045;27;20517;-29
2022/03/24 06:21:45;;;;;;;14.40;7.20;;;;;;;3.99;52.31;100757.31;5128873;27;20027;-30
2022/03/24 06:24:11;;;;;;;15.68;7.32;;;;;;;4.21;51.63;100748.00;5130484;27;20030;-28
2022/03/24 06:26:37;;;;;;;13.07;7.05;;;;;;;4.46;51.73;100763.91;5128966;27;20035;-30
2022/03/24 06:29:03;;;;;;;11.98;7.03;;;;;;;4.42;51.09;100763.41;5128676;27;20027;-33
2022/03/24 06:31:30;;;;;;;16.30;7.53;;;;;;;4.74;51.63;100775.84;5128773;27;20041;-29
2022/03/24 06:33:56;;;;;;;13.77;7.30;;;;;;;5.03;50.61;100743.63;5128243;27;20051;-31
2022/03/24 06:36:22;;;;;;;11.93;7.15;;;;;;;5.12;49.74;100772.72;5128931;27;20031;-28
2022/03/24 06:38:48;;;;;;;17.45;7.57;;;;;;;5.12;48.63;100755.03;5128777;27;20100;-33
2022/03/24 06:41:14;;;;;;;17.08;9.02;;;;;;;5.24;48.19;100748.41;5130612;27;20440;-33
2022/03/24 06:43:41;;;;;;;11.18;6.20;;;;;;;5.43;48.68;100772.84;5128710;27;20039;-29
2022/03/24 06:46:06;;;;;;;15.93;7.55;;;;;;;5.41;49.21;100764.25;5128388;27;20023;-31
2022/03/24 06:48:32;;;;;;;14.38;7.10;;;;;;;5.80;48.55;100768.78;5130075;27;20498;-34
2022/03/24 06:50:58;;;;;;;16.45;7.25;;;;;;;6.11;47.07;100746.88;5129649;27;20079;-29
2022/03/24 06:53:23;;;;;;;13.73;7.47;;;;;;;6.41;46.46;100766.41;5128627;27;20042;-31
2022/03/24 06:55:49;;;;;;;15.15;8.57;;;;;;;6.68;47.02;100756.31;5129711;27;20027;-29
2022/03/24 06:58:14;;;;;;;16.70;8.05;;;;;;;7.04;45.64;100753.88;5129532;27;20035;-33
2022/03/24 07:00:40;;;;;;;15.85;8.05;;;;;;;7.17;45.32;100766.53;5129373;27;20023;-30
2022/03/24 07:03:05;;;;;;;18.63;8.27;;;;;;;7.38;45.21;100760.56;5129193;27;20042;-31
2022/03/24 07:05:31;;;;;;;16.80;8.00;;;;;;;7.48;43.79;100769.09;5129648;27;20115;-29
2022/03/24 07:07:57;;;;;;;17.52;9.05;;;;;;;7.42;45.18;100751.22;5129640;27;20031;-29
2022/03/24 07:10:22;;;;;;;14.90;8.52;;;;;;;7.50;45.28;100756.47;5129596;27;20576;-32
2022/03/24 07:12:49;;;;;;;15.30;8.20;;;;;;;7.72;44.19;100743.28;5129178;27;20027;-35
2022/03/24 07:15:15;;;;;;;14.00;8.18;;;;;;;7.71;45.26;100742.44;5129478;27;20019;-29
2022/03/24 07:17:41;;;;;;;17.75;9.65;;;;;;;7.92;44.28;100720.44;5127721;27;20046;-29
2022/03/24 07:20:07;;;;;;;15.10;8.73;;;;;;;8.22;45.26;100739.81;5129531;27;20054;-29
2022/03/24 07:22:37;;;;;;;19.02;8.65;;;;;;;8.45;44.36;100744.19;5128039;27;20068;-28
2022/03/24 07:25:05;;;;;;;16.30;8.63;;;;;;;8.73;44.25;100740.81;5128721;27;20409;-29
2022/03/24 07:27:31;;;;;;;19.15;10.60;;;;;;;8.92;43.78;100731.34;5127641;27;20034;-40
2022/03/24 07:29:56;;;;;;;22.02;9.98;;;;;;;9.09;44.04;100740.69;5123643;27;20027;-29
2022/03/24 07:32:22;;;;;;;17.60;9.35;;;;;;;9.44;43.63;100714.16;5124117;27;20085;-31
2022/03/24 07:34:47;;;;;;;18.63;9.23;;;;;;;9.78;42.34;100717.81;5138949;27;20479;-36
2022/03/24 07:37:13;;;;;;;17.13;7.50;;;;;;;9.82;42.41;100708.41;5135201;27;20027;-33
2022/03/24 07:39:39;;;;;;;13.40;8.07;;;;;;;10.03;42.32;100724.28;5121970;27;20050;-37
2022/03/24 07:42:05;;;;;;;18.98;8.85;;;;;;;10.42;42.60;100724.63;5137775;27;20489;-31
2022/03/24 07:44:31;;;;;;;17.40;8.27;;;;;;;10.47;41.21;100721.38;5139319;27;20023;-29
2022/03/24 07:46:56;;;;;;;16.38;9.32;;;;;;;10.60;42.08;100695.56;5138705;27;20031;-31
2022/03/24 07:49:22;;;;;;;15.00;8.15;;;;;;;10.89;41.85;100708.69;5138067;27;20030;-29
2022/03/24 07:51:47;;;;;;;20.13;9.77;;;;;;;11.02;41.00;100708.69;5128887;27;20106;-32
2022/03/24 07:54:13;;;;;;;18.65;10.35;;;;;;;11.41;42.79;100717.69;5128869;27;20034;-30
2022/03/24 07:56:39;;;;;;;15.90;8.82;;;;;;;11.59;42.08;100712.50;5128726;27;20031;-33
2022/03/24 07:59:06;;;;;;;22.13;9.10;;;;;;;12.06;40.08;100709.69;5128913;27;20031;-33
2022/03/24 08:01:33;;;;;;;15.32;8.48;;;;;;;12.13;40.90;100702.47;5109709;27;20023;-30
2022/03/24 08:04:05;;;;;;;17.10;9.27;;;;;;;12.39;39.68;100706.84;5110392;27;20891;-29
2022/03/24 08:06:31;;;;;;;24.25;11.18;;;;;;;12.43;40.14;100678.63;5110013;27;20103;-34
2022/03/24 08:08:58;;;;;;;15.88;8.52;;;;;;;12.85;39.53;100708.41;5109997;28;20028;-29
2022/03/24 08:11:25;;;;;;;19.52;9.38;;;;;;;13.16;38.88;100706.69;5109920;28;20027;-29
2022/03/24 08:13:53;;;;;;;15.43;8.30;;;;;;;13.29;37.60;100703.09;5128581;28;20026;-29
2022/03/24 08:16:23;;;;;;;22.92;9.68;;;;;;;13.17;38.98;100694.91;5110000;27;20046;-30
2022/03/24 08:18:49;;;;;;;18.92;9.05;;;;;;;13.56;37.77;100702.81;5109787;28;20092;-34
2022/03/24 08:21:14;;;;;;;15.85;9.20;;;;;;;13.43;38.06;100688.53;5128495;28;20031;-32
2022/03/24 08:23:40;;;;;;;20.27;9.38;;;;;;;13.74;37.33;100672.50;5128394;27;20501;-30
2022/03/24 08:26:05;;;;;;;15.68;8.98;;;;;;;13.64;37.67;100668.47;5109905;28;20042;-31
2022/03/24 08:28:32;;;;;;;16.98;8.20;;;;;;;13.95;36.23;100669.34;5128204;27;20411;-31
2022/03/24 08:30:57;;;;;;;16.48;8.48;;;;;;;14.58;36.28;100675.31;5109748;28;20042;-32
2022/03/24 08:33:23;;;;;;;12.40;6.43;;;;;;;14.76;32.66;100671.72;5128206;28;20051;-31
2022/03/24 08:35:48;;;;;;;11.50;6.00;;;;;;;15.25;33.51;100677.69;5128680;27;20027;-29
2022/03/24 08:38:14;;;;;;;11.55;5.63;;;;;;;15.44;31.08;100681.06;5132495;27;20104;-29
2022/03/24 08:40:40;;;;;;;11.43;6.20;;;;;;;15.46;31.32;100673.56;5114023;27;20031;-34
2022/03/24 08:43:07;;;;;;;13.63;5.50;;;;;;;15.73;30.75;100657.75;5132130;27;20054;-36
2022/03/24 08:45:34;;;;;;;12.90;5.90;;;;;;;16.18;30.10;100658.88;5113621;27;20065;-29
2022/03/24 08:48:00;;;;;;;16.95;6.75;;;;;;;16.35;28.67;100642.78;5132304;27;20457;-30
2022/03/24 08:50:25;;;;;;;11.73;6.30;;;;;;;16.36;28.30;100642.50;5132149;27;20027;-31
2022/03/24 08:52:51;;;;;;;11.30;6.57;;;;;;;16.55;28.25;100647.66;5132015;27;20119;-29
2022/03/24 08:55:17;;;;;;;11.23;5.93;;;;;;;16.62;27.75;100637.56;5131994;27;20035;-31
2022/03/24 08:57:43;;;;;;;12.70;6.05;;;;;;;16.77;25.40;100634.28;5113230;27;20066;-31
2022/03/24 09:00:15;;;;;;;13.80;6.43;;;;;;;16.93;26.76;100622.72;5132136;27;20031;-31
2022/03/24 09:02:43;;;;;;;10.75;6.07;;;;;;;17.10;26.07;100646.09;5113635;27;20560;-32
2022/03/24 09:05:09;;;;;;;13.37;6.37;;;;;;;17.22;26.26;100646.81;5113330;27;20034;-33
2022/03/24 09:07:35;;;;;;;12.18;5.82;;;;;;;17.58;25.76;100629.22;5113352;27;20035;-34
2022/03/24 09:10:01;;;;;;;12.52;6.25;;;;;;;17.67;24.63;100625.03;5113305;27;20023;-35
2022/03/24 09:12:26;;;;;;;10.30;6.30;;;;;;;17.55;22.45;100640.53;5131570;27;20042;-35
2022/03/24 09:14:51;;;;;;;12.90;6.22;;;;;;;17.63;23.84;100637.38;5131429;27;20027;-33
2022/03/24 09:17:17;;;;;;;13.38;6.32;;;;;;;17.73;24.01;100608.88;5131757;27;20090;-36
2022/03/24 09:19:42;;;;;;;10.07;6.43;;;;;;;17.79;24.93;100613.28;5131833;27;20027;-32
2022/03/24 09:22:08;;;;;;;14.10;7.40;;;;;;;17.63;25.41;100613.13;5131606;27;20034;-33
2022/03/24 09:24:34;;;;;;;13.60;5.75;;;;;;;17.69;24.76;100624.75;5131622;27;20122;-31
2022/03/24 09:27:00;;;;;;;10.48;6.00;;;;;;;17.81;23.58;100624.63;5112609;27;20038;-31
2022/03/24 09:29:26;;;;;;;12.48;6.85;;;;;;;17.70;25.99;100604.81;5113103;27;20023;-32
2022/03/24 09:31:51;;;;;;;11.15;7.30;;;;;;;18.15;24.83;100621.78;5131133;27;20034;-35
2022/03/24 09:34:18;;;;;;;14.00;6.20;;;;;;;18.06;24.85;100608.75;5131540;27;20034;-32
2022/03/24 09:36:43;;;;;;;12.45;6.82;;;;;;;18.07;22.72;100602.25;5112736;27;20083;-31
2022/03/24 09:39:09;;;;;;;11.32;6.95;;;;;;;18.42;22.76;100617.13;5131053;27;20027;-32
2022/03/24 09:41:36;;;;;;;10.40;6.50;;;;;;;18.19;23.99;100595.91;5112404;27;20111;-31
2022/03/24 09:44:03;;;;;;;12.88;6.47;;;;;;;17.86;24.21;100592.34;5095923;27;20031;-33
2022/03/24 09:46:29;;;;;;;16.15;7.65;;;;;;;18.07;23.85;100599.56;5131222;27;20501;-34
2022/03/24 09:48:56;;;;;;;10.48;6.22;;;;;;;18.25;24.41;100595.69;5111037;27;20027;-40
2022/03/24 09:51:22;;;;;;;11.48;6.75;;;;;;;18.47;24.22;100611.78;5131247;27;20038;-31
2022/03/24 09:53:48;;;;;;;12.85;7.72;;;;;;;18.72;23.42;100594.16;5112695;27;20031;-32
2022/03/24 09:56:14;;;;;;;14.82;7.53;;;;;;;19.07;23.83;100585.44;5130766;27;20035;-29
2022/03/24 09:58:44;;;;;;;12.27;6.18;;;;;;;19.04;23.09;100595.97;5131223;27;20089;-36
2022/03/24 10:01:10;;;;;;;14.63;6.80;;;;;;;18.96;22.37;100572.13;5131016;27;20034;-29
2022/03/24 10:03:36;;;;;;;11.18;6.72;;;;;;;19.31;21.63;100581.50;5112486;27;20023;-30
2022/03/24 10:06:07;;;;;;;13.15;6.53;;;;;;;19.45;22.52;100574.50;5130701;27;20038;-30
2022/03/24 10:08:34;;;;;;;14.02;6.55;;;;;;;19.45;22.05;100579.94;5130828;27;20050;-34
2022/03/24 10:11:03;;;;;;;11.85;6.90;;;;;;;19.57;21.07;100556.16;5111994;27;20091;-29
2022/03/24 10:13:49;;;;;;;9.75;5.97;;;;;;;19.86;22.31;100575.47;5112190;27;20462;-38
2022/03/24 10:16:33;;;;;;;11.15;6.53;;;;;;;20.37;21.74;100563.88;5111833;27;20114;-29
2022/03/24 10:19:05;;;;;;;11.00;7.07;;;;;;;20.70;22.20;100556.25;5130295;27;20063;-35
2022/03/24 10:21:38;;;;;;;10.77;6.60;;;;;;;20.39;21.02;100556.28;5130443;27;20027;-32
2022/03/24 10:24:12;;;;;;;11.82;6.65;;;;;;;20.38;20.54;100557.34;5108640;27;20039;-34
2022/03/24 10:26:43;;;;;;;11.93;6.93;;;;;;;20.45;20.77;100552.47;5130205;27;20087;-30
2022/03/24 10:29:10;;;;;;;12.05;6.80;;;;;;;20.42;20.33;100538.66;5111583;27;20092;-31
2022/03/24 10:31:37;;;;;;;12.00;7.32;;;;;;;20.38;20.97;100527.56;5111352;27;20015;-31
2022/03/24 10:34:03;;;;;;;13.88;6.60;;;;;;;20.49;20.07;100528.34;5130399;27;20043;-32
2022/03/24 10:36:30;;;;;;;13.48;7.50;;;;;;;20.54;20.79;100535.66;5111401;27;20114;-30
2022/03/24 10:39:04;;;;;;;13.07;7.20;;;;;;;21.00;19.72;100538.25;5111275;27;20031;-31
2022/03/24 10:41:32;;;;;;;11.13;5.93;;;;;;;20.80;19.34;100522.88;5111550;27;20031;-32
2022/03/24 10:44:04;;;;;;;15.23;7.80;;;;;;;20.75;21.26;100521.00;5111139;27;20146;-30
2022/03/24 10:46:32;;;;;;;11.43;7.03;;;;;;;21.28;19.41;100518.63;5111553;27;20022;-31
2022/03/24 10:49:13;;;;;;;12.98;7.18;;;;;;;21.28;18.96;100501.53;5111416;27;20054;-31
2022/03/24 10:51:46;;;;;;;10.98;6.88;;;;;;;21.83;19.76;100509.63;5111309;27;20342;-37
2022/03/24 10:54:21;;;;;;;16.60;6.88;;;;;;;21.57;18.68;100509.00;5129760;27;20031;-30
2022/03/24 10:56:55;;;;;;;13.73;7.30;;;;;;;21.99;18.65;100511.13;5111244;27;20019;-30
2022/03/24 10:59:23;;;;;;;11.32;6.80;;;;;;;22.15;17.74;100497.41;5129484;27;20109;-34
2022/03/24 11:01:49;;;;;;;12.27;7.30;;;;;;;22.61;17.82;100488.81;5110925;27;20052;-31
2022/03/24 11:04:15;;;;;;;11.60;6.90;;;;;;;22.39;19.09;100476.56;5129594;27;20073;-31
2022/03/24 11:06:49;;;;;;;12.73;6.97;;;;;;;22.67;19.21;100490.38;5110959;27;20495;-33
2022/03/24 11:09:26;;;;;;;10.15;6.78;;;;;;;22.15;18.29;100481.09;5129331;27;20057;-32
2022/03/24 11:12:23;;;;;;;9.70;6.32;;;;;;;21.34;18.96;100494.19;5110910;27;20054;-32
2022/03/24 11:14:51;;;;;;;13.05;6.97;;;;;;;22.19;19.17;100482.97;5129332;27;20015;-35
2022/03/24 11:17:17;;;;;;;11.40;7.00;;;;;;;;;;5110732;27;20152;-29
2022/03/24 11:19:54;;;;;;;11.95;6.63;;;;;;;22.38;18.97;100466.78;5129118;27;20034;-29
2022/03/24 11:22:20;;;;;;;10.13;6.78;;;;;;;22.54;18.05;100458.47;5110789;27;20027;-29
2022/03/24 11:24:47;;;;;;;12.27;7.15;;;;;;;23.24;19.04;100447.78;5110576;27;20027;-31
2022/03/24 11:27:13;;;;;;;11.93;7.10;;;;;;;24.01;17.33;100443.88;5110505;27;20019;-29